Time,TemperatureF,DewpointF,PressureIn,WindDirection,WindDirectionDegrees,WindSpeedMPH,WindSpeedGustMPH,Humidity,HourlyPrecipIn,Conditions,Clouds,dailyrainin,SolarRadiationWatts/m^2,SoftwareType,DateUTC
2013-07-08 00:03:00,78.1,74.9,30.12,East,90,0.0,0.0,90,0.00,,---,0.00,0.00,VWS V14.01,2013-07-08 04:03:00,
2013-07-08 00:33:00,77.7,74.9,30.12,East,90,0.0,0.0,91,0.00,,---,0.00,0.00,VWS V14.01,2013-07-08 04:33:00,
2013-07-08 01:03:00,77.4,74.6,30.12,East,90,0.0,0.0,91,0.00,,---,0.00,0.00,VWS V14.01,2013-07-08 05:03:00,
2013-07-08 01:33:00,77.1,74.6,30.11,East,90,0.0,0.0,92,0.00,,---,0.00,0.00,VWS V14.01,2013-07-08 05:33:00,
2013-07-08 02:03:00,76.9,74.4,30.10,East,90,0.0,0.0,92,0.00,,---,0.00,0.00,VWS V14.01,2013-07-08 06:03:00,
2013-07-08 02:33:00,76.6,74.4,30.10,East,90,0.0,0.0,93,0.00,,---,0.00,0.00,VWS V14.01,2013-07-08 06:33:00,
2013-07-08 03:03:00,76.3,74.4,30.08,East,90,0.0,0.0,94,0.00,,---,0.00,0.00,VWS V14.01,2013-07-08 07:03:00,
2013-07-08 03:33:00,76.1,73.9,30.08,East,90,0.0,0.0,93,0.00,,---,0.00,0.00,VWS V14.01,2013-07-08 07:33:00,
2013-07-08 04:03:00,76.1,73.9,30.08,East,90,0.0,1.0,93,0.00,,---,0.00,0.00,VWS V14.01,2013-07-08 08:03:00,
2013-07-08 04:33:00,76.3,74.4,30.08,East,90,0.0,1.0,94,0.00,,---,0.00,0.00,VWS V14.01,2013-07-08 08:33:00,
2013-07-08 05:03:00,76.4,74.6,30.08,East,90,0.0,0.0,94,0.00,,---,0.00,0.00,VWS V14.01,2013-07-08 09:03:00,
2013-07-08 05:33:00,76.2,74.3,30.08,East,90,0.0,0.0,94,0.00,,---,0.00,0.00,VWS V14.01,2013-07-08 09:33:00,
2013-07-08 06:03:00,75.7,73.8,30.08,East,90,0.0,0.0,94,0.00,,---,0.00,0.00,VWS V14.01,2013-07-08 10:03:00,
2013-07-08 06:33:00,75.4,73.6,30.10,East,88,0.0,0.0,94,0.00,,---,0.00,0.00,VWS V14.01,2013-07-08 10:33:00,
2013-07-08 07:03:00,75.3,73.8,30.10,ESE,122,0.0,0.0,95,0.00,,---,0.00,21.00,VWS V14.01,2013-07-08 11:03:00,
2013-07-08 07:33:00,76.1,74.9,30.10,ESE,122,0.0,0.0,96,0.00,,---,0.00,37.00,VWS V14.01,2013-07-08 11:33:00,
2013-07-08 12:00:00,88.5,78.3,30.14,East,90,3.0,13.0,72,0.00,,---,0.00,903.00,VWS V14.01,2013-07-08 16:00:00,
2013-07-08 13:03:00,88.7,76.8,30.15,East,80,3.0,8.0,68,0.00,,---,0.00,990.00,VWS V14.01,2013-07-08 17:03:00,
2013-07-08 13:33:00,88.6,77.6,30.14,East,85,1.0,10.0,70,0.00,,---,0.00,601.00,VWS V14.01,2013-07-08 17:33:00,
2013-07-08 14:03:00,88.6,77.6,30.14,North,350,2.0,10.0,70,0.00,,---,0.00,1062.00,VWS V14.01,2013-07-08 18:03:00,
2013-07-08 16:03:00,88.2,77.2,30.11,East,87,5.0,13.0,70,0.00,,---,0.00,775.00,VWS V14.01,2013-07-08 20:03:00,
2013-07-08 17:03:00,86.9,75.9,30.09,East,101,6.0,7.0,70,0.00,,---,0.00,603.00,VWS V14.01,2013-07-08 21:03:00,
2013-07-08 17:33:00,86.3,75.8,30.08,East,92,3.0,10.0,71,0.00,,---,0.00,508.00,VWS V14.01,2013-07-08 21:33:00,
2013-07-08 18:03:00,85.6,76.0,30.08,ESE,111,0.0,10.0,73,0.00,,---,0.00,434.00,VWS V14.01,2013-07-08 22:03:00,
2013-07-08 19:03:00,83.9,75.1,30.09,East,98,1.0,11.0,75,0.00,,---,0.00,118.00,VWS V14.01,2013-07-08 23:03:00,
2013-07-08 19:33:00,82.4,75.2,30.09,East,97,0.0,7.0,79,0.00,,---,0.00,33.00,VWS V14.01,2013-07-08 23:33:00,
2013-07-08 21:33:00,80.2,75.3,30.13,East,91,0.0,0.0,85,0.00,,---,0.00,0.00,VWS V14.01,2013-07-09 01:33:00,
2013-07-08 22:03:00,79.8,75.2,30.14,East,91,0.0,0.0,86,0.00,,---,0.00,0.00,VWS V14.01,2013-07-09 02:03:00,
2013-07-08 22:33:00,79.2,74.7,30.14,East,91,0.0,0.0,86,0.00,,---,0.00,0.00,VWS V14.01,2013-07-09 02:33:00,
2013-07-08 23:03:00,78.7,74.8,30.15,East,91,0.0,0.0,88,0.00,,---,0.00,0.00,VWS V14.01,2013-07-09 03:03:00,